sensor_id;sensor_type;location;lat;lon;timestamp;pressure;altitude;pressure_sealevel;temperature;humidity
33075;BME280;19433;51.292;6.868;2023-01-19T00:01:15;99004.13;;;0.08;100.00
33075;BME280;19433;51.292;6.868;2023-01-19T00:03:40;99009.88;;;0.13;100.00
33075;BME280;19433;51.292;6.868;2023-01-19T00:06:07;99012.78;;;0.04;100.00
33075;BME280;19433;51.292;6.868;2023-01-19T00:08:32;99014.47;;;0.05;100.00
33075;BME280;19433;51.292;6.868;2023-01-19T00:10:59;99010.22;;;0.02;100.00
33075;BME280;19433;51.292;6.868;2023-01-19T00:13:25;99007.50;;;0.10;100.00
33075;BME280;19433;51.292;6.868;2023-01-19T00:15:50;99001.09;;;-0.05;100.00
33075;BME280;19433;51.292;6.868;2023-01-19T00:18:15;99018.53;;;0.00;100.00
33075;BME280;19433;51.292;6.868;2023-01-19T00:20:41;98999.19;;;0.04;100.00
33075;BME280;19433;51.292;6.868;2023-01-19T00:23:06;99011.03;;;0.19;100.00
33075;BME280;19433;51.292;6.868;2023-01-19T00:25:32;99019.69;;;0.22;100.00
33075;BME280;19433;51.292;6.868;2023-01-19T00:27:58;99007.00;;;0.15;100.00
33075;BME280;19433;51.292;6.868;2023-01-19T00:30:24;99016.31;;;0.12;100.00
33075;BME280;19433;51.292;6.868;2023-01-19T00:32:49;99013.44;;;0.06;100.00
33075;BME280;19433;51.292;6.868;2023-01-19T00:35:14;99003.63;;;-0.12;100.00
33075;BME280;19433;51.292;6.868;2023-01-19T00:37:40;99018.91;;;-0.11;100.00
33075;BME280;19433;51.292;6.868;2023-01-19T00:40:06;99017.38;;;-0.13;100.00
33075;BME280;19433;51.292;6.868;2023-01-19T00:42:31;99012.13;;;-0.15;100.00
33075;BME280;19433;51.292;6.868;2023-01-19T00:45:15;99027.56;;;-0.15;100.00
33075;BME280;19433;51.292;6.868;2023-01-19T00:47:42;99030.28;;;-0.07;100.00
33075;BME280;19433;51.292;6.868;2023-01-19T00:50:09;99019.63;;;-0.17;100.00
33075;BME280;19433;51.292;6.868;2023-01-19T00:52:39;99033.50;;;-0.04;100.00
33075;BME280;19433;51.292;6.868;2023-01-19T00:55:06;99029.25;;;-0.06;100.00
33075;BME280;19433;51.292;6.868;2023-01-19T00:57:32;99017.88;;;-0.02;100.00
33075;BME280;19433;51.292;6.868;2023-01-19T00:59:57;99005.31;;;0.06;100.00
33075;BME280;19433;51.292;6.868;2023-01-19T01:02:23;99023.63;;;0.04;100.00
33075;BME280;19433;51.292;6.868;2023-01-19T01:04:48;99021.75;;;0.04;100.00
33075;BME280;19433;51.292;6.868;2023-01-19T01:07:19;99025.84;;;0.08;100.00
33075;BME280;19433;51.292;6.868;2023-01-19T01:09:44;99018.03;;;0.05;100.00
33075;BME280;19433;51.292;6.868;2023-01-19T01:12:09;99022.09;;;0.09;100.00
33075;BME280;19433;51.292;6.868;2023-01-19T01:14:35;99024.69;;;-0.06;100.00
33075;BME280;19433;51.292;6.868;2023-01-19T01:17:00;99030.09;;;-0.06;100.00
33075;BME280;19433;51.292;6.868;2023-01-19T01:19:25;99038.25;;;-0.22;100.00
33075;BME280;19433;51.292;6.868;2023-01-19T01:21:50;99029.44;;;-0.24;100.00
33075;BME280;19433;51.292;6.868;2023-01-19T01:24:16;99020.63;;;-0.26;100.00
33075;BME280;19433;51.292;6.868;2023-01-19T01:26:43;99026.75;;;-0.16;100.00
33075;BME280;19433;51.292;6.868;2023-01-19T01:29:08;99036.53;;;-0.15;100.00
33075;BME280;19433;51.292;6.868;2023-01-19T01:31:33;99027.75;;;-0.17;100.00
33075;BME280;19433;51.292;6.868;2023-01-19T01:33:59;99036.91;;;-0.02;100.00
33075;BME280;19433;51.292;6.868;2023-01-19T01:36:24;99040.25;;;0.00;100.00
33075;BME280;19433;51.292;6.868;2023-01-19T01:38:53;99055.69;;;0.08;100.00
33075;BME280;19433;51.292;6.868;2023-01-19T01:41:18;99040.25;;;0.00;100.00
33075;BME280;19433;51.292;6.868;2023-01-19T01:43:54;99049.25;;;0.01;100.00
33075;BME280;19433;51.292;6.868;2023-01-19T01:46:23;99032.97;;;0.09;100.00
33075;BME280;19433;51.292;6.868;2023-01-19T01:49:10;99032.47;;;-0.03;100.00
33075;BME280;19433;51.292;6.868;2023-01-19T01:51:46;99027.22;;;-0.04;100.00
33075;BME280;19433;51.292;6.868;2023-01-19T01:54:29;99038.06;;;0.12;100.00
33075;BME280;19433;51.292;6.868;2023-01-19T01:57:00;99037.88;;;0.14;100.00
33075;BME280;19433;51.292;6.868;2023-01-19T01:59:31;99040.25;;;0.09;100.00
33075;BME280;19433;51.292;6.868;2023-01-19T02:02:17;99035.50;;;0.11;100.00
33075;BME280;19433;51.292;6.868;2023-01-19T02:05:09;99036.78;;;0.31;100.00
33075;BME280;19433;51.292;6.868;2023-01-19T02:07:54;99032.56;;;0.28;100.00
33075;BME280;19433;51.292;6.868;2023-01-19T02:10:41;99034.78;;;0.25;100.00
33075;BME280;19433;51.292;6.868;2023-01-19T02:13:27;99042.88;;;0.41;100.00
33075;BME280;19433;51.292;6.868;2023-01-19T02:15:56;99028.16;;;0.27;100.00
33075;BME280;19433;51.292;6.868;2023-01-19T02:18:25;99034.06;;;0.31;100.00
33075;BME280;19433;51.292;6.868;2023-01-19T02:21:00;99033.78;;;0.26;100.00
33075;BME280;19433;51.292;6.868;2023-01-19T02:23:44;99033.91;;;0.32;100.00
33075;BME280;19433;51.292;6.868;2023-01-19T02:26:13;99037.16;;;0.28;100.00
33075;BME280;19433;51.292;6.868;2023-01-19T02:28:44;99033.25;;;0.22;100.00
33075;BME280;19433;51.292;6.868;2023-01-19T02:31:11;99023.03;;;0.32;100.00
33075;BME280;19433;51.292;6.868;2023-01-19T02:33:36;99030.66;;;0.37;100.00
33075;BME280;19433;51.292;6.868;2023-01-19T02:36:03;99029.53;;;0.23;100.00
33075;BME280;19433;51.292;6.868;2023-01-19T02:38:29;99035.81;;;0.24;100.00
33075;BME280;19433;51.292;6.868;2023-01-19T02:40:56;99020.69;;;0.21;100.00
33075;BME280;19433;51.292;6.868;2023-01-19T02:43:23;99028.22;;;0.11;100.00
33075;BME280;19433;51.292;6.868;2023-01-19T02:45:49;99021.59;;;0.06;100.00
33075;BME280;19433;51.292;6.868;2023-01-19T02:48:15;99030.63;;;-0.02;100.00
33075;BME280;19433;51.292;6.868;2023-01-19T02:50:44;99035.03;;;-0.01;100.00
33075;BME280;19433;51.292;6.868;2023-01-19T02:55:53;99016.38;;;-0.20;100.00
33075;BME280;19433;51.292;6.868;2023-01-19T02:58:34;99026.75;;;-0.16;100.00
33075;BME280;19433;51.292;6.868;2023-01-19T03:03:36;99025.03;;;-0.17;100.00
33075;BME280;19433;51.292;6.868;2023-01-19T03:06:21;99023.66;;;-0.13;100.00
33075;BME280;19433;51.292;6.868;2023-01-19T03:08:54;99009.78;;;-0.42;100.00
33075;BME280;19433;51.292;6.868;2023-01-19T03:11:24;99012.50;;;-0.50;100.00
33075;BME280;19433;51.292;6.868;2023-01-19T03:14:03;99003.34;;;-0.41;100.00
33075;BME280;19433;51.292;6.868;2023-01-19T03:16:44;99010.31;;;-0.47;100.00
33075;BME280;19433;51.292;6.868;2023-01-19T03:19:18;99017.22;;;-0.28;100.00
33075;BME280;19433;51.292;6.868;2023-01-19T03:21:48;99009.28;;;-0.38;100.00
33075;BME280;19433;51.292;6.868;2023-01-19T03:24:17;99021.50;;;-0.50;100.00
33075;BME280;19433;51.292;6.868;2023-01-19T03:26:47;99021.97;;;-0.30;100.00
33075;BME280;19433;51.292;6.868;2023-01-19T03:29:14;99026.38;;;-0.29;100.00
33075;BME280;19433;51.292;6.868;2023-01-19T03:31:43;99013.34;;;-0.33;100.00
33075;BME280;19433;51.292;6.868;2023-01-19T03:34:12;99016.38;;;-0.28;100.00
33075;BME280;19433;51.292;6.868;2023-01-19T03:36:48;99020.63;;;-0.26;100.00
33075;BME280;19433;51.292;6.868;2023-01-19T03:39:19;99019.06;;;-0.12;100.00
33075;BME280;19433;51.292;6.868;2023-01-19T03:41:47;98999.75;;;-0.25;100.00
33075;BME280;19433;51.292;6.868;2023-01-19T03:44:15;99020.22;;;0.02;100.00
33075;BME280;19433;51.292;6.868;2023-01-19T03:46:41;99019.91;;;0.05;100.00
33075;BME280;19433;51.292;6.868;2023-01-19T03:49:06;99020.91;;;0.04;100.00
33075;BME280;19433;51.292;6.868;2023-01-19T03:51:36;99040.59;;;0.06;100.00
33075;BME280;19433;51.292;6.868;2023-01-19T03:54:03;99020.78;;;-0.03;100.00
33075;BME280;19433;51.292;6.868;2023-01-19T03:56:30;99036.00;;;0.06;100.00
33075;BME280;19433;51.292;6.868;2023-01-19T03:58:55;99032.78;;;0.11;100.00
33075;BME280;19433;51.292;6.868;2023-01-19T04:01:21;99035.81;;;0.16;100.00
33075;BME280;19433;51.292;6.868;2023-01-19T04:03:47;99031.06;;;0.26;100.00
33075;BME280;19433;51.292;6.868;2023-01-19T04:06:12;99037.00;;;0.21;100.00
33075;BME280;19433;51.292;6.868;2023-01-19T04:08:38;99036.66;;;0.16;100.00
33075;BME280;19433;51.292;6.868;2023-01-19T04:11:04;99040.75;;;0.12;100.00
33075;BME280;19433;51.292;6.868;2023-01-19T04:13:30;99031.94;;;0.10;100.00
33075;BME280;19433;51.292;6.868;2023-01-19T04:15:59;99023.47;;;0.13;100.00
33075;BME280;19433;51.292;6.868;2023-01-19T04:18:26;99034.66;;;0.10;100.00
33075;BME280;19433;51.292;6.868;2023-01-19T04:20:51;99029.56;;;0.07;100.00
33075;BME280;19433;51.292;6.868;2023-01-19T04:23:17;99020.44;;;-0.08;100.00
33075;BME280;19433;51.292;6.868;2023-01-19T04:25:42;99025.88;;;-0.08;100.00
33075;BME280;19433;51.292;6.868;2023-01-19T04:28:07;99020.63;;;-0.18;100.00
33075;BME280;19433;51.292;6.868;2023-01-19T04:30:32;99027.22;;;-0.12;100.00
33075;BME280;19433;51.292;6.868;2023-01-19T04:32:58;99013.50;;;-0.27;100.00
33075;BME280;19433;51.292;6.868;2023-01-19T04:35:23;99030.66;;;-0.34;100.00
33075;BME280;19433;51.292;6.868;2023-01-19T04:37:50;99028.09;;;-0.36;100.00
33075;BME280;19433;51.292;6.868;2023-01-19T04:40:15;99017.06;;;-0.43;100.00
33075;BME280;19433;51.292;6.868;2023-01-19T04:42:44;99027.25;;;-0.53;100.00
33075;BME280;19433;51.292;6.868;2023-01-19T04:45:11;99020.31;;;-0.55;100.00
33075;BME280;19433;51.292;6.868;2023-01-19T04:47:36;99024.53;;;-0.69;100.00
33075;BME280;19433;51.292;6.868;2023-01-19T04:50:02;99015.88;;;-0.73;100.00
33075;BME280;19433;51.292;6.868;2023-01-19T04:52:33;99022.31;;;-0.82;100.00
33075;BME280;19433;51.292;6.868;2023-01-19T04:55:00;99019.94;;;-0.85;100.00
33075;BME280;19433;51.292;6.868;2023-01-19T04:57:25;99007.72;;;-0.97;100.00
33075;BME280;19433;51.292;6.868;2023-01-19T04:59:50;99016.22;;;-0.92;100.00
33075;BME280;19433;51.292;6.868;2023-01-19T05:02:15;99003.16;;;-0.88;100.00
33075;BME280;19433;51.292;6.868;2023-01-19T05:04:41;99018.94;;;-0.92;100.00
33075;BME280;19433;51.292;6.868;2023-01-19T05:07:07;99001.28;;;-0.88;100.00
33075;BME280;19433;51.292;6.868;2023-01-19T05:09:32;99011.81;;;-0.85;100.00
33075;BME280;19433;51.292;6.868;2023-01-19T05:11:57;99006.56;;;-0.94;100.00
33075;BME280;19433;51.292;6.868;2023-01-19T05:14:22;99008.09;;;-0.92;100.00
33075;BME280;19433;51.292;6.868;2023-01-19T05:16:48;99017.41;;;-0.86;100.00
33075;BME280;19433;51.292;6.868;2023-01-19T05:19:13;99027.75;;;-0.82;100.00
33075;BME280;19433;51.292;6.868;2023-01-19T05:21:39;99024.53;;;-0.77;100.00
33075;BME280;19433;51.292;6.868;2023-01-19T05:24:04;99016.88;;;-0.90;100.00
33075;BME280;19433;51.292;6.868;2023-01-19T05:26:30;99026.53;;;-0.87;100.00
33075;BME280;19433;51.292;6.868;2023-01-19T05:28:55;99019.44;;;-0.96;100.00
33075;BME280;19433;51.292;6.868;2023-01-19T05:31:20;99032.13;;;-0.97;100.00
33075;BME280;19433;51.292;6.868;2023-01-19T05:33:46;99018.53;;;-1.05;100.00
33075;BME280;19433;51.292;6.868;2023-01-19T05:36:12;99034.31;;;-1.00;100.00
33075;BME280;19433;51.292;6.868;2023-01-19T05:38:37;99039.56;;;-0.91;100.00
33075;BME280;19433;51.292;6.868;2023-01-19T05:41:02;99043.28;;;-1.00;100.00
33075;BME280;19433;51.292;6.868;2023-01-19T05:43:28;99050.56;;;-1.00;100.00
33075;BME280;19433;51.292;6.868;2023-01-19T05:45:53;99052.13;;;-0.98;100.00
33075;BME280;19433;51.292;6.868;2023-01-19T05:48:18;99031.94;;;-1.12;100.00
33075;BME280;19433;51.292;6.868;2023-01-19T05:50:43;99042.09;;;-1.06;100.00
33075;BME280;19433;51.292;6.868;2023-01-19T05:53:10;99041.75;;;-1.11;100.00
33075;BME280;19433;51.292;6.868;2023-01-19T05:55:35;99046.84;;;-1.08;100.00
33075;BME280;19433;51.292;6.868;2023-01-19T05:58:00;99039.53;;;-1.15;100.00
33075;BME280;19433;51.292;6.868;2023-01-19T06:00:26;99038.00;;;-1.18;100.00
33075;BME280;19433;51.292;6.868;2023-01-19T06:02:52;99049.56;;;-1.08;100.00
33075;BME280;19433;51.292;6.868;2023-01-19T06:05:17;99046.00;;;-1.08;100.00
33075;BME280;19433;51.292;6.868;2023-01-19T06:07:42;99059.19;;;-1.05;100.00
33075;BME280;19433;51.292;6.868;2023-01-19T06:10:08;99053.28;;;-1.09;100.00
33075;BME280;19433;51.292;6.868;2023-01-19T06:12:34;99059.56;;;-1.08;100.00
33075;BME280;19433;51.292;6.868;2023-01-19T06:14:59;99055.84;;;-1.07;100.00
33075;BME280;19433;51.292;6.868;2023-01-19T06:17:24;99060.72;;;-1.11;100.00
33075;BME280;19433;51.292;6.868;2023-01-19T06:19:50;99069.88;;;-1.03;100.00
33075;BME280;19433;51.292;6.868;2023-01-19T06:22:15;99066.16;;;-1.02;100.00
33075;BME280;19433;51.292;6.868;2023-01-19T06:24:40;99064.97;;;-1.00;100.00
33075;BME280;19433;51.292;6.868;2023-01-19T06:27:05;99055.47;;;-1.04;100.00
33075;BME280;19433;51.292;6.868;2023-01-19T06:29:32;99064.44;;;-1.12;100.00
33075;BME280;19433;51.292;6.868;2023-01-19T06:31:57;99056.66;;;-1.07;100.00
33075;BME280;19433;51.292;6.868;2023-01-19T06:34:23;99066.84;;;-1.09;100.00
33075;BME280;19433;51.292;6.868;2023-01-19T06:36:53;99061.25;;;-1.07;100.00
33075;BME280;19433;51.292;6.868;2023-01-19T06:39:18;99074.81;;;-0.99;100.00
33075;BME280;19433;51.292;6.868;2023-01-19T06:41:44;99079.00;;;-1.04;100.00
33075;BME280;19433;51.292;6.868;2023-01-19T06:44:09;99078.31;;;-1.07;100.00
33075;BME280;19433;51.292;6.868;2023-01-19T06:46:34;99090.69;;;-1.04;100.00
33075;BME280;19433;51.292;6.868;2023-01-19T06:49:00;99090.03;;;-1.06;100.00
33075;BME280;19433;51.292;6.868;2023-01-19T06:51:25;99076.66;;;-1.08;100.00
33075;BME280;19433;51.292;6.868;2023-01-19T06:53:51;99088.50;;;-1.09;100.00
33075;BME280;19433;51.292;6.868;2023-01-19T06:56:16;99095.44;;;-1.06;100.00
33075;BME280;19433;51.292;6.868;2023-01-19T06:58:41;99104.47;;;-0.97;100.00
33075;BME280;19433;51.292;6.868;2023-01-19T07:01:07;99102.91;;;-1.00;100.00
33075;BME280;19433;51.292;6.868;2023-01-19T07:03:33;99106.00;;;-0.95;100.00
33075;BME280;19433;51.292;6.868;2023-01-19T07:05:58;99112.28;;;-0.94;100.00
33075;BME280;19433;51.292;6.868;2023-01-19T07:08:26;99110.72;;;-0.97;100.00
33075;BME280;19433;51.292;6.868;2023-01-19T07:10:52;99117.00;;;-0.96;100.00
33075;BME280;19433;51.292;6.868;2023-01-19T07:13:17;99109.56;;;-0.94;100.00
33075;BME280;19433;51.292;6.868;2023-01-19T07:15:42;99104.13;;;-0.94;100.00
33075;BME280;19433;51.292;6.868;2023-01-19T07:18:07;99115.03;;;-0.78;100.00
33075;BME280;19433;51.292;6.868;2023-01-19T07:20:34;99117.53;;;-0.85;100.00
33075;BME280;19433;51.292;6.868;2023-01-19T07:22:59;99128.00;;;-0.90;100.00
33075;BME280;19433;51.292;6.868;2023-01-19T07:25:25;99148.06;;;-0.83;100.00
33075;BME280;19433;51.292;6.868;2023-01-19T07:27:51;99146.19;;;-0.82;100.00
33075;BME280;19433;51.292;6.868;2023-01-19T07:30:17;99155.16;;;-0.82;100.00
33075;BME280;19433;51.292;6.868;2023-01-19T07:32:42;99164.31;;;-0.83;100.00
33075;BME280;19433;51.292;6.868;2023-01-19T07:35:08;99158.91;;;-0.83;100.00
33075;BME280;19433;51.292;6.868;2023-01-19T07:37:34;99145.19;;;-0.81;100.00
33075;BME280;19433;51.292;6.868;2023-01-19T07:39:59;99158.72;;;-0.81;100.00
33075;BME280;19433;51.292;6.868;2023-01-19T07:42:24;99169.09;;;-0.68;100.00
33075;BME280;19433;51.292;6.868;2023-01-19T07:44:50;99172.31;;;-0.73;100.00
33075;BME280;19433;51.292;6.868;2023-01-19T07:47:15;99176.75;;;-0.64;100.00
33075;BME280;19433;51.292;6.868;2023-01-19T07:49:40;99168.06;;;-0.76;100.00
33075;BME280;19433;51.292;6.868;2023-01-19T07:52:06;99185.22;;;-0.67;100.00
33075;BME280;19433;51.292;6.868;2023-01-19T07:54:31;99179.94;;;-0.68;100.00
33075;BME280;19433;51.292;6.868;2023-01-19T07:56:56;99189.94;;;-0.69;100.00
33075;BME280;19433;51.292;6.868;2023-01-19T07:59:22;99190.97;;;-0.70;100.00
33075;BME280;19433;51.292;6.868;2023-01-19T08:01:47;99203.50;;;-0.69;100.00
33075;BME280;19433;51.292;6.868;2023-01-19T08:07:32;99211.34;;;-0.58;100.00
33075;BME280;19433;51.292;6.868;2023-01-19T08:09:58;99224.91;;;-0.58;100.00
33075;BME280;19433;51.292;6.868;2023-01-19T08:12:23;99220.31;;;-0.57;100.00
33075;BME280;19433;51.292;6.868;2023-01-19T08:14:48;99215.91;;;-0.58;100.00
33075;BME280;19433;51.292;6.868;2023-01-19T08:17:13;99227.78;;;-0.59;100.00
33075;BME280;19433;51.292;6.868;2023-01-19T08:19:39;99225.44;;;-0.54;100.00
33075;BME280;19433;51.292;6.868;2023-01-19T08:22:05;99229.16;;;-0.55;100.00
33075;BME280;19433;51.292;6.868;2023-01-19T08:24:30;99232.22;;;-0.50;100.00
33075;BME280;19433;51.292;6.868;2023-01-19T08:27:03;99233.25;;;-0.51;100.00
33075;BME280;19433;51.292;6.868;2023-01-19T08:32:53;99245.81;;;-0.42;100.00
33075;BME280;19433;51.292;6.868;2023-01-19T08:38:44;99253.63;;;-0.39;100.00
33075;BME280;19433;51.292;6.868;2023-01-19T08:44:26;99256.53;;;-0.32;100.00
33075;BME280;19433;51.292;6.868;2023-01-19T08:46:52;99256.88;;;-0.27;100.00
33075;BME280;19433;51.292;6.868;2023-01-19T08:49:41;99266.06;;;-0.20;100.00
33075;BME280;19433;51.292;6.868;2023-01-19T08:52:10;99263.47;;;-0.30;100.00
33075;BME280;19433;51.292;6.868;2023-01-19T08:54:35;99260.97;;;-0.31;100.00
33075;BME280;19433;51.292;6.868;2023-01-19T08:57:01;99268.78;;;-0.20;100.00
33075;BME280;19433;51.292;6.868;2023-01-19T08:59:31;99267.63;;;-0.10;100.00
33075;BME280;19433;51.292;6.868;2023-01-19T09:01:57;99272.69;;;-0.15;100.00
33075;BME280;19433;51.292;6.868;2023-01-19T09:04:23;99275.91;;;-0.19;100.00
33075;BME280;19433;51.292;6.868;2023-01-19T09:06:48;99279.81;;;-0.14;100.00
33075;BME280;19433;51.292;6.868;2023-01-19T09:09:21;99289.66;;;-0.13;100.00
33075;BME280;19433;51.292;6.868;2023-01-19T09:15:08;99289.16;;;-0.08;100.00
33075;BME280;19433;51.292;6.868;2023-01-19T09:17:35;99289.69;;;-0.05;100.00
33075;BME280;19433;51.292;6.868;2023-01-19T09:20:00;99304.63;;;-0.01;100.00
33075;BME280;19433;51.292;6.868;2023-01-19T09:25:10;99309.22;;;-0.01;100.00
33075;BME280;19433;51.292;6.868;2023-01-19T09:31:10;99318.22;;;0.08;100.00
33075;BME280;19433;51.292;6.868;2023-01-19T09:37:00;99327.06;;;0.10;100.00
33075;BME280;19433;51.292;6.868;2023-01-19T09:42:41;99325.84;;;0.04;100.00
33075;BME280;19433;51.292;6.868;2023-01-19T09:52:04;99349.31;;;0.13;100.00
33075;BME280;19433;51.292;6.868;2023-01-19T09:54:48;99346.75;;;0.12;100.00
33075;BME280;19433;51.292;6.868;2023-01-19T09:57:17;99351.00;;;0.14;100.00
33075;BME280;19433;51.292;6.868;2023-01-19T09:59:42;99336.41;;;0.31;100.00
33075;BME280;19433;51.292;6.868;2023-01-19T10:04:58;99342.00;;;0.22;100.00
33075;BME280;19433;51.292;6.868;2023-01-19T10:10:31;99355.91;;;0.11;100.00
33075;BME280;19433;51.292;6.868;2023-01-19T10:15:44;99364.75;;;0.13;100.00
33075;BME280;19433;51.292;6.868;2023-01-19T10:18:16;99372.38;;;0.09;100.00
33075;BME280;19433;51.292;6.868;2023-01-19T10:26:20;99376.78;;;0.18;100.00
33075;BME280;19433;51.292;6.868;2023-01-19T10:28:49;99366.94;;;0.09;100.00
33075;BME280;19433;51.292;6.868;2023-01-19T10:31:17;99370.66;;;0.08;100.00
33075;BME280;19433;51.292;6.868;2023-01-19T10:33:45;99372.03;;;0.12;100.00
33075;BME280;19433;51.292;6.868;2023-01-19T10:36:24;99374.25;;;0.17;100.00
33075;BME280;19433;51.292;6.868;2023-01-19T10:39:15;99378.00;;;0.24;100.00
33075;BME280;19433;51.292;6.868;2023-01-19T10:41:51;99372.75;;;0.22;100.00
33075;BME280;19433;51.292;6.868;2023-01-19T10:44:25;99374.44;;;0.31;100.00
33075;BME280;19433;51.292;6.868;2023-01-19T10:46:57;99372.94;;;0.29;100.00
33075;BME280;19433;51.292;6.868;2023-01-19T10:52:37;99373.44;;;0.32;100.00
33075;BME280;19433;51.292;6.868;2023-01-19T10:55:05;99373.59;;;0.31;100.00
33075;BME280;19433;51.292;6.868;2023-01-19T10:57:36;99382.31;;;0.43;100.00
33075;BME280;19433;51.292;6.868;2023-01-19T11:03:36;99378.41;;;0.45;100.00
33075;BME280;19433;51.292;6.868;2023-01-19T11:09:30;99374.84;;;0.77;100.00
33075;BME280;19433;51.292;6.868;2023-01-19T11:15:52;99386.25;;;1.13;100.00
33075;BME280;19433;51.292;6.868;2023-01-19T12:08:17;99382.38;;;0.75;100.00
33075;BME280;19433;51.292;6.868;2023-01-19T12:10:46;99383.38;;;0.74;100.00
33075;BME280;19433;51.292;6.868;2023-01-19T12:13:44;99390.19;;;0.86;100.00
33075;BME280;19433;51.292;6.868;2023-01-19T12:16:17;99392.41;;;0.91;100.00
33075;BME280;19433;51.292;6.868;2023-01-19T12:19:06;99378.25;;;0.79;100.00
33075;BME280;19433;51.292;6.868;2023-01-19T12:40:47;99402.06;;;1.10;100.00
33075;BME280;19433;51.292;6.868;2023-01-19T12:43:22;99398.50;;;1.17;100.00
33075;BME280;19433;51.292;6.868;2023-01-19T12:49:51;99401.38;;;1.32;100.00
33075;BME280;19433;51.292;6.868;2023-01-19T13:02:39;99395.88;;;1.64;100.00
33075;BME280;19433;51.292;6.868;2023-01-19T13:08:57;99401.63;;;1.69;100.00
33075;BME280;19433;51.292;6.868;2023-01-19T13:11:23;99397.03;;;1.70;100.00
33075;BME280;19433;51.292;6.868;2023-01-19T13:26:26;99403.41;;;1.46;100.00
33075;BME280;19433;51.292;6.868;2023-01-19T13:28:55;99402.34;;;1.55;100.00
33075;BME280;19433;51.292;6.868;2023-01-19T13:31:23;99405.25;;;1.62;100.00
33075;BME280;19433;51.292;6.868;2023-01-19T13:34:02;99397.44;;;1.51;100.00
33075;BME280;19433;51.292;6.868;2023-01-19T13:36:31;99399.31;;;1.50;100.00
33075;BME280;19433;51.292;6.868;2023-01-19T13:42:18;99401.16;;;1.66;100.00
33075;BME280;19433;51.292;6.868;2023-01-19T13:48:29;99408.81;;;1.62;100.00
33075;BME280;19433;51.292;6.868;2023-01-19T13:51:16;99412.56;;;1.53;100.00
33075;BME280;19433;51.292;6.868;2023-01-19T13:56:55;99426.72;;;1.32;100.00
33075;BME280;19433;51.292;6.868;2023-01-19T14:05:54;99428.88;;;1.53;100.00
33075;BME280;19433;51.292;6.868;2023-01-19T14:12:05;99433.81;;;1.58;100.00
33075;BME280;19433;51.292;6.868;2023-01-19T14:35:36;99450.72;;;1.21;100.00
33075;BME280;19433;51.292;6.868;2023-01-19T14:38:01;99434.38;;;1.13;100.00
33075;BME280;19433;51.292;6.868;2023-01-19T14:57:26;99452.91;;;1.17;100.00
33075;BME280;19433;51.292;6.868;2023-01-19T15:03:16;99451.84;;;0.94;100.00
33075;BME280;19433;51.292;6.868;2023-01-19T15:08:48;99459.13;;;0.69;100.00
33075;BME280;19433;51.292;6.868;2023-01-19T15:11:37;99473.19;;;0.56;100.00
33075;BME280;19433;51.292;6.868;2023-01-19T15:14:37;99470.59;;;0.39;100.00
33075;BME280;19433;51.292;6.868;2023-01-19T15:17:03;99478.72;;;0.39;100.00
33075;BME280;19433;51.292;6.868;2023-01-19T15:19:28;99484.84;;;0.41;100.00
33075;BME280;19433;51.292;6.868;2023-01-19T15:21:53;99475.00;;;0.40;100.00
33075;BME280;19433;51.292;6.868;2023-01-19T15:24:19;99482.13;;;0.41;100.00
33075;BME280;19433;51.292;6.868;2023-01-19T15:26:46;99492.00;;;0.50;100.00
33075;BME280;19433;51.292;6.868;2023-01-19T15:32:33;99493.75;;;0.59;100.00
33075;BME280;19433;51.292;6.868;2023-01-19T15:34:59;99500.91;;;0.60;100.00
33075;BME280;19433;51.292;6.868;2023-01-19T15:37:24;99495.97;;;0.63;100.00
33075;BME280;19433;51.292;6.868;2023-01-19T15:39:52;99501.94;;;0.67;100.00
33075;BME280;19433;51.292;6.868;2023-01-19T15:48:21;99501.41;;;0.63;100.00
33075;BME280;19433;51.292;6.868;2023-01-19T15:54:12;99510.06;;;0.59;100.00
33075;BME280;19433;51.292;6.868;2023-01-19T16:00:06;99514.97;;;0.55;100.00
33075;BME280;19433;51.292;6.868;2023-01-19T16:05:59;99510.34;;;0.48;100.00
33075;BME280;19433;51.292;6.868;2023-01-19T16:08:25;99514.91;;;0.47;100.00
33075;BME280;19433;51.292;6.868;2023-01-19T16:10:52;99509.16;;;0.50;100.00
